createdAt,value
2023-11-30T00:00:24.990Z,4.20
2023-11-30T00:02:52.490Z,3.85
2023-11-30T00:05:23.333Z,3.20
2023-11-30T00:07:52.475Z,4.20
2023-11-30T00:10:21.356Z,4.15
2023-11-30T00:12:48.856Z,4.00
2023-11-30T00:15:16.494Z,4.22
2023-11-30T00:17:44.128Z,4.53
2023-11-30T00:20:13.131Z,4.15
2023-11-30T00:22:41.271Z,4.13
2023-11-30T00:25:09.164Z,3.72
2023-11-30T00:27:38.000Z,4.35
2023-11-30T00:30:07.695Z,4.15
2023-11-30T00:32:36.898Z,4.53
2023-11-30T00:35:04.929Z,4.25
2023-11-30T00:37:32.583Z,4.40
2023-11-30T00:40:00.166Z,4.78
2023-11-30T00:42:27.835Z,5.40
2023-11-30T00:44:56.743Z,4.32
2023-11-30T00:47:24.319Z,4.75
2023-11-30T00:49:51.980Z,4.93
2023-11-30T00:52:19.710Z,4.47
2023-11-30T00:54:47.171Z,5.30
2023-11-30T00:57:14.680Z,5.10
2023-11-30T00:59:42.171Z,4.80
2023-11-30T01:02:10.988Z,6.00
2023-11-30T01:04:38.508Z,5.35
2023-11-30T01:07:06.120Z,6.70
2023-11-30T01:09:33.682Z,6.18
2023-11-30T01:12:01.861Z,6.82
2023-11-30T01:14:29.305Z,6.80
2023-11-30T01:16:56.754Z,6.88
2023-11-30T01:19:25.611Z,7.20
2023-11-30T01:21:53.068Z,7.07
2023-11-30T01:24:20.580Z,7.07
2023-11-30T01:26:49.512Z,8.38
2023-11-30T01:29:17.051Z,7.70
2023-11-30T01:31:44.959Z,7.40
2023-11-30T01:34:11.532Z,8.43
2023-11-30T01:36:41.696Z,7.82
2023-11-30T01:39:09.446Z,8.70
2023-11-30T01:41:37.298Z,7.47
2023-11-30T01:44:04.933Z,8.05
2023-11-30T01:46:32.857Z,7.70
2023-11-30T01:49:00.923Z,8.50
2023-11-30T01:51:29.021Z,8.98
2023-11-30T01:53:58.592Z,8.57
2023-11-30T01:56:26.187Z,8.20
2023-11-30T01:58:53.993Z,8.88
2023-11-30T02:01:22.420Z,8.68
2023-11-30T02:03:50.179Z,7.97
2023-11-30T02:06:20.369Z,8.85
2023-11-30T02:08:48.134Z,9.90
2023-11-30T02:11:17.038Z,9.07
2023-11-30T02:13:44.486Z,8.68
2023-11-30T02:16:12.335Z,8.60
2023-11-30T02:18:39.902Z,8.50
2023-11-30T02:21:07.832Z,8.75
2023-11-30T02:23:36.708Z,8.10
2023-11-30T02:26:04.162Z,8.82
2023-11-30T02:28:31.736Z,8.65
2023-11-30T02:30:59.250Z,7.90
2023-11-30T02:33:26.773Z,8.55
2023-11-30T02:35:54.385Z,8.90
2023-11-30T02:38:22.043Z,8.48
2023-11-30T02:40:50.933Z,8.02
2023-11-30T02:43:18.382Z,8.57
2023-11-30T02:45:46.247Z,8.35
2023-11-30T02:48:14.041Z,8.80
2023-11-30T02:50:41.557Z,8.52
2023-11-30T02:53:09.013Z,8.48
2023-11-30T02:55:36.611Z,7.60
2023-11-30T02:58:05.499Z,8.80
2023-11-30T03:00:33.267Z,7.68
2023-11-30T03:03:00.978Z,8.90
2023-11-30T03:05:28.584Z,7.50
2023-11-30T03:07:56.696Z,8.32
2023-11-30T03:10:24.635Z,8.05
2023-11-30T03:12:53.232Z,7.85
2023-11-30T03:15:23.996Z,7.60
2023-11-30T03:17:51.936Z,8.25
2023-11-30T03:20:20.768Z,8.05
2023-11-30T03:22:51.224Z,7.57
2023-11-30T03:25:19.397Z,8.18
2023-11-30T03:27:47.066Z,7.72
2023-11-30T03:30:14.843Z,8.23
2023-11-30T03:32:43.668Z,8.52
2023-11-30T03:35:11.176Z,7.20
2023-11-30T03:37:41.572Z,8.02
2023-11-30T03:40:09.800Z,7.80
2023-11-30T03:42:37.553Z,8.15
2023-11-30T03:45:06.198Z,7.68
2023-11-30T03:47:38.250Z,7.78
2023-11-30T03:50:07.777Z,7.68
2023-11-30T03:52:35.830Z,7.78
2023-11-30T03:55:03.446Z,8.02
2023-11-30T03:57:30.982Z,7.97
2023-11-30T04:00:01.446Z,7.57
2023-11-30T04:02:32.081Z,7.28
2023-11-30T04:05:00.403Z,8.32
2023-11-30T04:07:31.131Z,8.23
2023-11-30T04:09:59.035Z,8.15
2023-11-30T04:12:27.020Z,7.07
2023-11-30T04:14:54.571Z,8.10
2023-11-30T04:17:22.514Z,8.38
2023-11-30T04:19:54.608Z,8.07
2023-11-30T04:22:23.133Z,7.90
2023-11-30T04:24:53.101Z,7.97
2023-11-30T04:27:21.021Z,8.38
2023-11-30T04:29:49.340Z,9.10
2023-11-30T04:32:17.624Z,8.60
2023-11-30T04:34:48.540Z,8.82
2023-11-30T04:37:16.099Z,8.57
2023-11-30T04:39:43.872Z,8.98
2023-11-30T04:42:13.697Z,8.57
2023-11-30T04:44:41.470Z,8.52
2023-11-30T04:47:11.254Z,8.63
2023-11-30T04:49:41.450Z,8.32
2023-11-30T04:52:09.028Z,8.30
2023-11-30T04:54:39.061Z,8.75
2023-11-30T04:57:07.318Z,8.70
2023-11-30T04:59:36.166Z,9.30
2023-11-30T05:02:04.036Z,9.20
2023-11-30T05:04:31.800Z,8.73
2023-11-30T05:06:59.425Z,8.73
2023-11-30T05:09:27.256Z,7.88
2023-11-30T05:11:55.155Z,8.65
2023-11-30T05:14:22.759Z,7.78
2023-11-30T05:16:51.596Z,8.48
2023-11-30T05:19:19.060Z,7.55
2023-11-30T05:21:46.540Z,8.57
2023-11-30T05:24:13.996Z,8.45
2023-11-30T05:26:41.431Z,8.38
2023-11-30T05:29:08.863Z,9.05
2023-11-30T05:31:36.349Z,8.85
2023-11-30T05:34:05.130Z,8.15
2023-11-30T05:36:32.711Z,9.23
2023-11-30T05:39:00.730Z,7.95
2023-11-30T05:41:28.515Z,8.88
2023-11-30T05:43:55.967Z,8.40
2023-11-30T05:46:23.802Z,8.15
2023-11-30T05:48:51.355Z,8.23
2023-11-30T05:51:20.296Z,8.88
2023-11-30T05:53:47.766Z,8.10
2023-11-30T05:56:15.233Z,8.55
2023-11-30T05:58:42.648Z,7.82
2023-11-30T06:01:10.104Z,8.93
2023-11-30T06:03:37.689Z,7.28
2023-11-30T06:06:05.694Z,8.30
2023-11-30T06:08:34.469Z,8.35
2023-11-30T06:11:01.972Z,7.97
2023-11-30T06:13:29.393Z,8.05
2023-11-30T06:15:57.085Z,7.20
2023-11-30T06:18:25.053Z,7.05
2023-11-30T06:20:52.535Z,7.63
2023-11-30T06:23:19.979Z,8.05
2023-11-30T06:25:48.860Z,7.35
2023-11-30T06:28:17.325Z,7.55
2023-11-30T06:30:45.735Z,7.20
2023-11-30T06:33:13.366Z,6.93
2023-11-30T06:35:40.892Z,6.88
2023-11-30T06:38:08.291Z,6.47
2023-11-30T06:40:35.730Z,6.65
2023-11-30T06:43:04.496Z,6.95
2023-11-30T06:45:32.242Z,7.40
2023-11-30T06:47:59.799Z,7.00
2023-11-30T06:50:27.345Z,7.38
2023-11-30T06:52:54.778Z,7.57
2023-11-30T06:55:23.364Z,7.38
2023-11-30T06:57:50.801Z,6.60
2023-11-30T07:00:20.137Z,6.30
2023-11-30T07:02:47.719Z,7.88
2023-11-30T07:05:15.539Z,7.43
2023-11-30T07:07:43.075Z,7.50
2023-11-30T07:10:13.965Z,7.78
2023-11-30T07:12:41.497Z,7.90
2023-11-30T07:15:09.403Z,7.72
2023-11-30T07:17:38.267Z,8.05
2023-11-30T07:20:07.831Z,8.20
2023-11-30T07:22:35.845Z,8.18
2023-11-30T07:25:05.021Z,9.15
2023-11-30T07:27:32.534Z,8.25
2023-11-30T07:30:00.196Z,9.68
2023-11-30T07:32:27.841Z,9.50
2023-11-30T07:34:57.047Z,9.02
2023-11-30T07:37:27.448Z,9.82
2023-11-30T07:39:55.505Z,9.32
2023-11-30T07:42:29.166Z,8.90
2023-11-30T07:45:00.941Z,8.52
2023-11-30T07:47:28.735Z,9.48
2023-11-30T07:49:57.542Z,10.73
2023-11-30T07:52:25.159Z,9.43
2023-11-30T07:54:52.719Z,9.45
2023-11-30T07:57:20.221Z,10.32
2023-11-30T07:59:48.935Z,10.57
2023-11-30T08:02:17.109Z,10.00
2023-11-30T08:04:44.847Z,10.18
2023-11-30T08:07:14.075Z,10.52
2023-11-30T08:09:41.649Z,10.63
2023-11-30T08:12:09.408Z,9.95
2023-11-30T08:14:36.953Z,11.13
2023-11-30T08:17:06.235Z,10.75
2023-11-30T08:19:34.396Z,11.70
2023-11-30T08:22:02.193Z,10.95
2023-11-30T08:24:31.269Z,12.27
2023-11-30T08:26:59.086Z,10.68
2023-11-30T08:29:26.566Z,10.57
2023-11-30T08:31:54.370Z,11.32
2023-11-30T08:34:22.084Z,12.52
2023-11-30T08:36:49.648Z,12.35
2023-11-30T08:39:23.481Z,12.48
2023-11-30T08:41:52.445Z,11.60
2023-11-30T08:44:20.074Z,12.15
2023-11-30T08:46:47.792Z,11.65
2023-11-30T08:49:15.436Z,11.52
2023-11-30T08:51:45.763Z,11.45
2023-11-30T08:54:13.921Z,11.48
2023-11-30T08:56:41.938Z,11.95
2023-11-30T08:59:10.857Z,11.82
2023-11-30T09:01:39.156Z,12.27
2023-11-30T09:04:10.053Z,12.30
2023-11-30T09:06:38.524Z,11.18
2023-11-30T09:09:06.168Z,11.45
2023-11-30T09:11:35.146Z,11.43
2023-11-30T09:14:03.090Z,12.40
2023-11-30T09:16:32.051Z,11.20
2023-11-30T09:18:59.650Z,11.65
2023-11-30T09:21:27.554Z,10.82
2023-11-30T09:23:55.349Z,10.93
2023-11-30T09:26:23.406Z,11.30
2023-11-30T09:28:51.237Z,11.90
2023-11-30T09:31:25.498Z,11.18
2023-11-30T09:33:54.640Z,11.57
2023-11-30T09:36:23.283Z,11.05
2023-11-30T09:38:51.018Z,12.10
2023-11-30T09:41:18.589Z,10.88
2023-11-30T09:43:46.697Z,11.70
2023-11-30T09:46:14.352Z,10.77
2023-11-30T09:48:41.861Z,11.85
2023-11-30T09:51:12.156Z,11.25
2023-11-30T09:53:39.990Z,12.13
2023-11-30T09:56:08.228Z,9.93
2023-11-30T09:58:38.535Z,12.13
2023-11-30T10:01:08.790Z,11.43
2023-11-30T10:03:39.083Z,10.50
2023-11-30T10:06:07.607Z,10.43
2023-11-30T10:08:36.475Z,9.80
2023-11-30T10:11:04.997Z,10.05
2023-11-30T10:13:32.511Z,9.77
2023-11-30T10:16:00.239Z,11.50
2023-11-30T10:18:31.355Z,9.30
2023-11-30T10:20:59.082Z,9.57
2023-11-30T10:23:27.247Z,10.07
2023-11-30T10:25:57.414Z,9.52
2023-11-30T10:28:25.057Z,9.73
2023-11-30T10:30:55.026Z,9.35
2023-11-30T10:33:23.461Z,9.52
2023-11-30T10:35:51.716Z,9.60
2023-11-30T10:38:22.224Z,10.20
2023-11-30T10:40:50.329Z,8.95
2023-11-30T10:43:19.664Z,9.60
2023-11-30T10:45:47.372Z,9.50
2023-11-30T10:48:15.870Z,9.63
2023-11-30T10:50:43.618Z,9.82
2023-11-30T10:53:15.217Z,8.60
2023-11-30T10:55:43.328Z,9.02
2023-11-30T10:58:12.529Z,8.18
2023-11-30T11:00:43.461Z,8.20
2023-11-30T11:03:11.526Z,8.23
2023-11-30T11:05:44.620Z,7.63
2023-11-30T11:08:13.559Z,7.43
2023-11-30T11:10:41.054Z,7.32
2023-11-30T11:13:08.684Z,7.53
2023-11-30T11:15:36.508Z,8.20
2023-11-30T11:18:12.588Z,7.40
2023-11-30T11:20:40.698Z,7.68
2023-11-30T11:23:09.447Z,7.70
2023-11-30T11:25:37.623Z,7.47
2023-11-30T11:28:05.312Z,7.88
2023-11-30T11:30:33.967Z,7.38
2023-11-30T11:33:03.452Z,7.57
2023-11-30T11:35:33.198Z,7.32
2023-11-30T11:38:01.142Z,6.55
2023-11-30T11:40:29.177Z,6.65
2023-11-30T11:42:57.157Z,6.60
2023-11-30T11:45:25.015Z,7.45
2023-11-30T11:47:53.315Z,7.38
2023-11-30T11:50:20.949Z,6.35
2023-11-30T11:52:49.970Z,6.78
2023-11-30T11:55:17.987Z,7.97
2023-11-30T11:57:46.644Z,7.20
2023-11-30T12:00:17.732Z,6.90
2023-11-30T12:02:45.440Z,7.45
2023-11-30T12:05:13.653Z,7.47
2023-11-30T12:07:51.567Z,7.82
2023-11-30T12:10:28.548Z,6.65
2023-11-30T12:12:58.253Z,6.95
2023-11-30T12:15:26.943Z,6.75
2023-11-30T12:17:55.197Z,6.63
2023-11-30T12:20:23.130Z,7.75
2023-11-30T12:22:52.933Z,8.20
2023-11-30T12:25:20.641Z,7.97
2023-11-30T12:27:48.596Z,7.18
2023-11-30T12:30:16.861Z,7.30
2023-11-30T12:32:44.599Z,7.95
2023-11-30T12:35:16.290Z,7.28
2023-11-30T12:37:44.464Z,7.60
2023-11-30T12:40:15.940Z,8.07
2023-11-30T12:42:44.148Z,8.30
2023-11-30T12:45:17.433Z,8.23
2023-11-30T12:47:47.485Z,8.60
2023-11-30T12:50:15.336Z,8.77
2023-11-30T12:52:43.326Z,7.80
2023-11-30T12:55:11.167Z,7.88
2023-11-30T12:57:41.017Z,7.70
2023-11-30T13:00:16.326Z,7.90
2023-11-30T13:02:46.830Z,7.45
2023-11-30T13:05:15.587Z,7.88
2023-11-30T13:07:44.179Z,7.90
2023-11-30T13:10:12.782Z,8.02
2023-11-30T13:12:43.107Z,7.85
2023-11-30T13:15:14.563Z,7.35
2023-11-30T13:17:42.668Z,8.55
2023-11-30T13:20:14.360Z,7.55
2023-11-30T13:22:44.954Z,8.23
2023-11-30T13:25:15.234Z,8.32
2023-11-30T13:27:47.519Z,7.32
2023-11-30T13:30:19.408Z,7.70
2023-11-30T13:32:47.945Z,8.38
2023-11-30T13:35:16.851Z,7.97
2023-11-30T13:37:44.624Z,8.27
2023-11-30T13:40:12.871Z,8.50
2023-11-30T13:42:40.618Z,8.57
2023-11-30T13:45:13.135Z,8.07
2023-11-30T13:47:41.519Z,7.90
2023-11-30T13:50:19.143Z,8.23
2023-11-30T13:52:53.682Z,8.38
2023-11-30T13:55:21.331Z,7.65
2023-11-30T13:57:49.071Z,7.85
2023-11-30T14:00:18.465Z,7.65
2023-11-30T14:02:46.233Z,8.68
2023-11-30T14:05:13.896Z,8.50
2023-11-30T14:07:41.704Z,7.90
2023-11-30T14:10:11.240Z,8.13
2023-11-30T14:12:39.814Z,7.70
2023-11-30T14:15:12.025Z,8.38
2023-11-30T14:17:41.145Z,8.13
2023-11-30T14:20:10.392Z,7.75
2023-11-30T14:22:49.150Z,8.57
2023-11-30T14:25:22.775Z,8.23
2023-11-30T14:27:50.637Z,7.28
2023-11-30T14:30:18.797Z,8.18
2023-11-30T14:32:47.763Z,7.68
2023-11-30T14:35:15.539Z,8.85
2023-11-30T14:37:43.579Z,7.78
2023-11-30T14:40:12.617Z,7.95
2023-11-30T14:42:40.358Z,8.50
2023-11-30T14:45:11.542Z,7.82
2023-11-30T14:47:41.215Z,8.20
2023-11-30T14:50:11.407Z,9.45
2023-11-30T14:52:39.826Z,8.25
2023-11-30T14:55:08.149Z,8.50
2023-11-30T14:57:36.010Z,8.35
2023-11-30T15:00:07.331Z,8.98
2023-11-30T15:02:36.985Z,7.47
2023-11-30T15:05:17.332Z,7.95
2023-11-30T15:07:46.724Z,7.45
2023-11-30T15:10:14.552Z,7.82
2023-11-30T15:12:42.305Z,8.50
2023-11-30T15:15:14.522Z,8.65
2023-11-30T15:17:44.493Z,7.93
2023-11-30T15:20:13.273Z,8.93
2023-11-30T15:22:41.438Z,7.95
2023-11-30T15:25:18.657Z,8.18
2023-11-30T15:27:47.376Z,7.68
2023-11-30T15:30:15.422Z,8.90
2023-11-30T15:32:43.213Z,7.60
2023-11-30T15:35:11.139Z,7.72
2023-11-30T15:37:38.952Z,7.65
2023-11-30T15:40:10.231Z,7.90
2023-11-30T15:42:40.146Z,7.45
2023-11-30T15:45:11.896Z,7.45
2023-11-30T15:47:42.103Z,8.20
2023-11-30T15:50:11.714Z,7.70
2023-11-30T15:52:39.949Z,7.20
2023-11-30T15:55:11.563Z,7.53
2023-11-30T15:57:40.657Z,7.38
2023-11-30T16:00:09.706Z,8.10
2023-11-30T16:02:40.813Z,7.78
2023-11-30T16:05:08.774Z,8.07
2023-11-30T16:07:36.764Z,7.93
2023-11-30T16:10:05.688Z,7.68
2023-11-30T16:12:33.460Z,7.55
2023-11-30T16:15:07.956Z,8.25
2023-11-30T16:17:38.783Z,7.80
2023-11-30T16:20:11.381Z,8.57
2023-11-30T16:22:39.394Z,7.93
2023-11-30T16:25:07.536Z,9.35
2023-11-30T16:27:35.348Z,7.80
2023-11-30T16:30:03.213Z,9.40
2023-11-30T16:32:32.049Z,8.98
2023-11-30T16:35:04.448Z,8.30
2023-11-30T16:37:32.226Z,8.18
2023-11-30T16:39:59.719Z,7.90
2023-11-30T16:42:28.384Z,8.55
2023-11-30T16:44:56.152Z,8.75
2023-11-30T16:47:24.145Z,9.93
2023-11-30T16:49:53.213Z,9.40
2023-11-30T16:52:21.133Z,9.70
2023-11-30T16:54:49.034Z,10.20
2023-11-30T16:57:16.751Z,9.95
2023-11-30T16:59:44.367Z,9.80
2023-11-30T17:02:12.022Z,10.90
2023-11-30T17:04:39.485Z,10.52
2023-11-30T17:07:09.565Z,10.05
2023-11-30T17:09:40.153Z,10.13
2023-11-30T17:12:07.474Z,9.85
2023-11-30T17:14:35.063Z,10.23
2023-11-30T17:17:02.674Z,9.80
2023-11-30T17:19:30.185Z,10.68
2023-11-30T17:21:57.839Z,10.52
2023-11-30T17:24:27.255Z,9.68
2023-11-30T17:26:55.255Z,10.32
2023-11-30T17:29:23.716Z,10.15
2023-11-30T17:31:51.694Z,10.00
2023-11-30T17:34:20.030Z,10.20
2023-11-30T17:36:52.197Z,9.35
2023-11-30T17:39:19.812Z,8.95
2023-11-30T17:41:49.384Z,8.05
2023-11-30T17:44:31.966Z,8.45
2023-11-30T17:47:02.371Z,9.30
2023-11-30T17:49:29.991Z,9.25
2023-11-30T17:51:57.605Z,9.52
2023-11-30T17:54:25.125Z,10.48
2023-11-30T17:56:54.117Z,8.93
2023-11-30T17:59:21.592Z,10.27
2023-11-30T18:01:49.203Z,9.15
2023-11-30T18:04:17.593Z,9.85
2023-11-30T18:06:45.257Z,9.85
2023-11-30T18:09:12.824Z,10.35
2023-11-30T18:11:40.461Z,9.65
2023-11-30T18:14:09.418Z,9.90
2023-11-30T18:16:37.171Z,9.95
2023-11-30T18:19:05.006Z,9.35
2023-11-30T18:21:34.613Z,9.57
2023-11-30T18:24:02.620Z,10.25
2023-11-30T18:26:30.186Z,9.70
2023-11-30T18:28:57.860Z,9.25
2023-11-30T18:31:27.076Z,9.77
2023-11-30T18:33:55.032Z,10.10
2023-11-30T18:36:23.288Z,9.20
2023-11-30T18:38:52.229Z,10.15
2023-11-30T18:41:20.742Z,9.98
2023-11-30T18:43:49.138Z,10.02
2023-11-30T18:46:16.837Z,9.82
2023-11-30T18:48:48.636Z,9.13
2023-11-30T18:51:16.548Z,10.45
2023-11-30T18:53:44.409Z,9.55
2023-11-30T18:56:12.240Z,10.07
2023-11-30T18:58:41.417Z,9.88
2023-11-30T19:01:10.948Z,10.07
2023-11-30T19:03:39.366Z,9.70
2023-11-30T19:06:08.924Z,9.85
2023-11-30T19:08:36.616Z,9.27
2023-11-30T19:11:04.476Z,10.50
2023-11-30T19:13:38.583Z,10.55
2023-11-30T19:16:11.353Z,9.88
2023-11-30T19:18:38.953Z,9.57
2023-11-30T19:21:09.605Z,10.23
2023-11-30T19:23:38.533Z,10.65
2023-11-30T19:26:06.949Z,10.20
2023-11-30T19:28:37.626Z,10.70
2023-11-30T19:31:05.903Z,11.95
2023-11-30T19:33:33.956Z,12.05
2023-11-30T19:36:07.317Z,12.40
2023-11-30T19:38:36.392Z,12.38
2023-11-30T19:41:04.128Z,12.27
2023-11-30T19:43:32.347Z,10.18
2023-11-30T19:46:03.607Z,11.52
2023-11-30T19:48:31.778Z,10.38
2023-11-30T19:51:01.078Z,11.63
2023-11-30T19:53:28.665Z,11.65
2023-11-30T19:55:59.718Z,10.50
2023-11-30T19:58:27.395Z,10.88
2023-11-30T20:00:54.912Z,11.07
2023-11-30T20:03:22.513Z,11.00
2023-11-30T20:05:52.751Z,10.65
2023-11-30T20:08:20.972Z,11.77
2023-11-30T20:10:50.662Z,11.50
2023-11-30T20:13:23.889Z,11.65
2023-11-30T20:15:56.276Z,10.70
2023-11-30T20:18:24.122Z,11.52
2023-11-30T20:20:51.704Z,12.68
2023-11-30T20:23:19.228Z,12.63
2023-11-30T20:25:46.818Z,10.93
2023-11-30T20:28:14.374Z,12.35
2023-11-30T20:30:43.349Z,10.73
2023-11-30T20:33:11.077Z,11.65
2023-11-30T20:35:38.813Z,12.40
2023-11-30T20:38:06.407Z,11.60
2023-11-30T20:40:34.562Z,11.85
2023-11-30T20:43:02.631Z,11.95
2023-11-30T20:45:30.072Z,10.95
2023-11-30T20:47:58.945Z,12.52
2023-11-30T20:50:29.427Z,11.45
2023-11-30T20:52:56.923Z,12.27
2023-11-30T20:55:24.517Z,11.20
2023-11-30T20:57:52.300Z,11.10
2023-11-30T21:00:20.217Z,11.25
2023-11-30T21:02:47.852Z,12.60
2023-11-30T21:05:18.951Z,12.52
2023-11-30T21:07:46.538Z,11.85
2023-11-30T21:10:15.225Z,11.50
2023-11-30T21:12:42.828Z,11.80
2023-11-30T21:15:11.088Z,11.93
2023-11-30T21:17:39.123Z,11.50
2023-11-30T21:20:07.797Z,10.98
2023-11-30T21:22:36.817Z,12.82
2023-11-30T21:25:08.306Z,12.00
2023-11-30T21:27:36.245Z,11.30
2023-11-30T21:30:04.696Z,11.43
2023-11-30T21:32:31.398Z,11.20
2023-11-30T21:35:01.559Z,10.60
2023-11-30T21:37:29.604Z,9.93
2023-11-30T21:39:58.546Z,10.15
2023-11-30T21:42:26.509Z,9.23
2023-11-30T21:44:56.201Z,9.18
2023-11-30T21:47:23.965Z,9.63
2023-11-30T21:49:51.614Z,9.75
2023-11-30T21:52:19.220Z,10.50
2023-11-30T21:54:46.864Z,10.52
2023-11-30T21:57:15.998Z,10.63
2023-11-30T21:59:43.846Z,10.32
2023-11-30T22:02:11.441Z,10.05
2023-11-30T22:04:39.005Z,10.93
2023-11-30T22:07:06.553Z,9.65
2023-11-30T22:09:34.594Z,11.05
2023-11-30T22:12:06.332Z,10.82
2023-11-30T22:14:35.325Z,10.57
2023-11-30T22:17:02.890Z,10.40
2023-11-30T22:19:30.516Z,11.25
2023-11-30T22:21:58.136Z,10.50
2023-11-30T22:24:25.729Z,11.07
2023-11-30T22:26:53.446Z,10.88
2023-11-30T22:29:20.952Z,11.10
2023-11-30T22:31:50.042Z,10.45
2023-11-30T22:34:17.528Z,12.57
2023-11-30T22:36:45.620Z,11.32
2023-11-30T22:39:13.448Z,11.32
2023-11-30T22:41:44.144Z,10.77
2023-11-30T22:44:11.772Z,10.65
2023-11-30T22:46:39.360Z,11.48
2023-11-30T22:49:08.601Z,10.15
2023-11-30T22:51:36.266Z,11.60
2023-11-30T22:54:04.766Z,10.60
2023-11-30T22:56:32.426Z,10.20
2023-11-30T22:59:00.246Z,9.63
2023-11-30T23:01:28.194Z,10.52
2023-11-30T23:03:57.627Z,10.45
2023-11-30T23:06:29.808Z,10.70
2023-11-30T23:09:00.895Z,10.25
2023-11-30T23:11:28.524Z,10.13
2023-11-30T23:13:55.985Z,11.45
2023-11-30T23:16:23.585Z,12.05
2023-11-30T23:18:54.400Z,11.25
2023-11-30T23:21:24.032Z,11.80
2023-11-30T23:23:53.101Z,10.93
2023-11-30T23:26:23.232Z,12.27
2023-11-30T23:28:53.458Z,12.40
2023-11-30T23:31:21.994Z,12.38
2023-11-30T23:33:49.819Z,10.63
2023-11-30T23:36:17.645Z,11.15
2023-11-30T23:38:45.453Z,11.18
2023-11-30T23:44:12.197Z,11.35
2023-11-30T23:46:43.002Z,10.85
2023-11-30T23:49:16.327Z,11.18
2023-11-30T23:51:44.326Z,10.57
2023-11-30T23:54:16.030Z,11.02
2023-11-30T23:56:46.678Z,9.70
2023-11-30T23:59:27.716Z,10.05
